Time;durP1;ratioP1;P1;durP2;ratioP2;P2;SDS_P1;SDS_P2;PMS_P1;PMS_P2;Temp;Humidity;BMP_temperature;BMP_pressure;BME280_temperature;BME280_humidity;BME280_pressure;Samples;Min_cycle;Max_cycle;Signal;HPM_P1;HPM_P2
2023/07/07 00:00:51;;;;;;;5.03;2.30;;;;;;;;;;5086425;28;20911;-60
2023/07/07 00:03:16;;;;;;;6.30;2.22;;;;;;;;;;5087324;28;20261;-59
2023/07/07 00:05:42;;;;;;;5.43;2.30;;;;;;;;;;5084081;28;20032;-59
2023/07/07 00:08:07;;;;;;;5.78;2.22;;;;;;;;;;5090782;27;20456;-59
2023/07/07 00:10:33;;;;;;;5.70;2.30;;;;;;;;;;5090862;28;21312;-60
2023/07/07 00:12:58;;;;;;;6.20;2.33;;;;;;;;;;5088866;28;20276;-60
2023/07/07 00:15:23;;;;;;;5.00;1.92;;;;;;;;;;5086794;28;20249;-60
2023/07/07 00:17:51;;;;;;;6.07;2.30;;;;;;;;;;5091911;28;20084;-61
2023/07/07 00:20:17;;;;;;;8.18;2.08;;;;;;;;;;5077177;28;20505;-59
2023/07/07 00:22:43;;;;;;;6.20;2.25;;;;;;;;;;5093262;28;20047;-59
2023/07/07 00:25:09;;;;;;;6.95;2.40;;;;;;;;;;5083748;28;20039;-60
2023/07/07 00:27:34;;;;;;;4.85;1.90;;;;;;;;;;5086954;28;20051;-58
2023/07/07 00:30:00;;;;;;;5.03;2.00;;;;;;;;;;5083166;28;20135;-60
2023/07/07 00:32:27;;;;;;;4.90;2.22;;;;;;;;;;5087748;28;20250;-60
2023/07/07 00:34:54;;;;;;;5.68;2.40;;;;;;;;;;5081614;28;20031;-59
2023/07/07 00:37:19;;;;;;;6.35;2.33;;;;;;;;;;5084363;28;20161;-59
2023/07/07 00:39:44;;;;;;;5.07;2.37;;;;;;;;;;5089081;28;20032;-60
2023/07/07 00:42:10;;;;;;;7.28;2.28;;;;;;;;;;5087043;28;20954;-60
2023/07/07 00:44:54;;;;;;;6.85;2.25;;;;;;;;;;5090455;28;20044;-60
2023/07/07 00:47:21;;;;;;;6.57;2.25;;;;;;;;;;5084503;28;20026;-60
2023/07/07 00:49:47;;;;;;;5.47;1.98;;;;;;;;;;5089615;28;20039;-60
2023/07/07 00:52:12;;;;;;;5.40;1.93;;;;;;;;;;5083919;27;20521;-59
2023/07/07 00:54:39;;;;;;;7.37;2.50;;;;;;;;;;5087141;28;20261;-60
2023/07/07 00:57:05;;;;;;;4.53;2.05;;;;;;;;;;5087088;28;20258;-59
2023/07/07 00:59:32;;;;;;;5.80;2.10;;;;;;;;;;5083469;28;20587;-59
2023/07/07 01:02:24;;;;;;;5.15;2.10;;;;;;;;;;5090189;28;20183;-59
2023/07/07 01:04:58;;;;;;;5.38;2.00;;;;;;;;;;5087169;28;20027;-60
2023/07/07 01:07:57;;;;;;;5.97;2.33;;;;;;;;;;5089311;28;20028;-59
2023/07/07 01:10:43;;;;;;;5.03;2.30;;;;;;;;;;5090243;28;20019;-59
2023/07/07 01:13:09;;;;;;;5.32;2.13;;;;;;;;;;5087057;28;20059;-59
2023/07/07 01:15:37;;;;;;;4.57;1.95;;;;;;;;;;5080621;28;20229;-59
2023/07/07 01:18:40;;;;;;;5.20;2.00;;;;;;;;;;5087032;28;20058;-58
2023/07/07 01:21:41;;;;;;;5.07;1.83;;;;;;;;;;5032386;28;20032;-59
2023/07/07 01:24:19;;;;;;;5.57;2.17;;;;;;;;;;4950998;28;20049;-59
2023/07/07 01:26:44;;;;;;;5.65;1.92;;;;;;;;;;5062446;28;20112;-59
2023/07/07 01:29:14;;;;;;;5.80;2.10;;;;;;;;;;5084359;28;20039;-59
2023/07/07 01:31:43;;;;;;;4.50;1.75;;;;;;;;;;5079077;28;20316;-59
2023/07/07 01:34:15;;;;;;;5.15;1.98;;;;;;;;;;5102255;27;20120;-59
2023/07/07 01:36:46;;;;;;;6.03;2.10;;;;;;;;;;5082472;28;20031;-59
2023/07/07 01:39:11;;;;;;;5.95;2.28;;;;;;;;;;5082279;28;20032;-59
2023/07/07 01:41:46;;;;;;;5.18;2.08;;;;;;;;;;5066194;28;20077;-59
2023/07/07 01:44:18;;;;;;;5.82;2.00;;;;;;;;;;5086853;28;20106;-59
2023/07/07 01:46:46;;;;;;;4.93;1.98;;;;;;;;;;5079103;28;20023;-60
2023/07/07 01:49:35;;;;;;;5.07;1.70;;;;;;;;;;5086685;28;20036;-59
2023/07/07 01:52:05;;;;;;;4.47;1.83;;;;;;;;;;5079977;28;20073;-59
2023/07/07 01:54:50;;;;;;;5.85;2.13;;;;;;;;;;5089644;28;20016;-59
2023/07/07 01:57:25;;;;;;;7.18;2.00;;;;;;;;;;5085323;28;20024;-59
2023/07/07 01:59:50;;;;;;;7.05;1.98;;;;;;;;;;5087675;28;20068;-59
2023/07/07 02:02:18;;;;;;;5.63;1.88;;;;;;;;;;5092416;28;20019;-58
2023/07/07 02:04:43;;;;;;;5.30;2.17;;;;;;;;;;5084699;28;20072;-59
2023/07/07 02:07:08;;;;;;;6.15;2.10;;;;;;;;;;5091592;28;20023;-59
2023/07/07 02:09:34;;;;;;;5.15;1.92;;;;;;;;;;5079540;28;20040;-58
2023/07/07 02:11:59;;;;;;;5.63;2.00;;;;;;;;;;5088882;28;20066;-61
2023/07/07 02:14:24;;;;;;;5.88;1.90;;;;;;;;;;5083914;28;20020;-56
2023/07/07 02:16:50;;;;;;;5.82;2.05;;;;;;;;;;5086754;28;20175;-59
2023/07/07 02:19:17;;;;;;;5.20;1.90;;;;;;;;;;5084098;28;20031;-59
2023/07/07 02:21:45;;;;;;;5.03;1.70;;;;;;;;;;5081088;28;20031;-61
2023/07/07 02:24:10;;;;;;;5.00;2.00;;;;;;;;;;5092739;28;20019;-59
2023/07/07 02:26:38;;;;;;;5.93;2.00;;;;;;;;;;5066225;28;20024;-60
2023/07/07 02:29:06;;;;;;;5.80;2.13;;;;;;;;;;5096021;28;20741;-60
2023/07/07 02:31:31;;;;;;;5.63;1.83;;;;;;;;;;5087084;28;20153;-60
2023/07/07 02:33:56;;;;;;;4.40;1.70;;;;;;;;;;5082297;28;20023;-60
2023/07/07 02:36:24;;;;;;;5.57;2.42;;;;;;;;;;5088182;28;20272;-60
2023/07/07 02:38:49;;;;;;;5.60;2.13;;;;;;;;;;5078002;28;20024;-61
2023/07/07 02:41:17;;;;;;;5.25;2.08;;;;;;;;;;5095305;28;20133;-60
2023/07/07 02:43:42;;;;;;;5.35;2.20;;;;;;;;;;5082374;28;20024;-58
2023/07/07 02:46:07;;;;;;;7.23;1.70;;;;;;;;;;5084789;28;20051;-60
2023/07/07 02:48:33;;;;;;;4.77;1.90;;;;;;;;;;5082441;28;20274;-60
2023/07/07 02:51:02;;;;;;;4.57;1.70;;;;;;;;;;5081267;28;20648;-60
2023/07/07 02:53:27;;;;;;;;;;;;;;;;;;5089826;28;20265;-60
2023/07/07 02:55:55;;;;;;;6.22;2.10;;;;;;;;;;5081130;28;19934;-60
2023/07/07 02:58:21;;;;;;;4.90;1.88;;;;;;;;;;5086478;28;20019;-60
2023/07/07 03:00:47;;;;;;;5.00;1.90;;;;;;;;;;5083674;28;20060;-59
2023/07/07 03:03:15;;;;;;;5.07;2.00;;;;;;;;;;5087353;28;20105;-59
2023/07/07 03:05:41;;;;;;;6.35;1.80;;;;;;;;;;5082173;28;20028;-60
2023/07/07 03:08:06;;;;;;;5.50;2.00;;;;;;;;;;5086385;28;20485;-60
2023/07/07 03:10:32;;;;;;;4.65;1.90;;;;;;;;;;5083565;28;20032;-60
2023/07/07 03:13:00;;;;;;;5.13;2.28;;;;;;;;;;5087102;28;20023;-60
2023/07/07 03:15:29;;;;;;;4.65;1.90;;;;;;;;;;5082062;28;20442;-59
2023/07/07 03:17:57;;;;;;;5.35;2.25;;;;;;;;;;5085368;28;20162;-60
2023/07/07 03:20:26;;;;;;;5.68;2.08;;;;;;;;;;5080781;28;20019;-59
2023/07/07 03:22:51;;;;;;;6.95;2.45;;;;;;;;;;5085166;28;20051;-61
2023/07/07 03:25:17;;;;;;;5.07;2.00;;;;;;;;;;5079973;28;20545;-60
2023/07/07 03:27:42;;;;;;;6.83;1.90;;;;;;;;;;5079463;28;21409;-60
2023/07/07 03:30:07;;;;;;;6.40;1.97;;;;;;;;;;5084028;28;20273;-60
2023/07/07 03:32:33;;;;;;;5.82;1.70;;;;;;;;;;5080912;28;20785;-59
2023/07/07 03:35:00;;;;;;;4.30;1.63;;;;;;;;;;5085521;28;20074;-60
2023/07/07 03:37:28;;;;;;;5.95;1.85;;;;;;;;;;5084172;28;20249;-60
2023/07/07 03:39:53;;;;;;;4.95;1.80;;;;;;;;;;5091105;28;20725;-60
2023/07/07 03:42:19;;;;;;;5.70;1.50;;;;;;;;;;5080657;28;20115;-60
2023/07/07 03:44:44;;;;;;;5.30;1.80;;;;;;;;;;5081216;28;20030;-61
2023/07/07 03:47:09;;;;;;;5.03;1.63;;;;;;;;;;5088460;28;20331;-60
2023/07/07 03:49:34;;;;;;;4.53;1.60;;;;;;;;;;5081392;28;20258;-60
2023/07/07 03:52:00;;;;;;;5.07;1.95;;;;;;;;;;5086176;28;20286;-60
2023/07/07 03:54:25;;;;;;;5.63;2.10;;;;;;;;;;5081427;28;20047;-59
2023/07/07 03:56:50;;;;;;;5.07;2.00;;;;;;;;;;5092036;28;20307;-59
2023/07/07 03:59:15;;;;;;;4.90;1.90;;;;;;;;;;5087443;28;20031;-61
2023/07/07 04:01:41;;;;;;;5.25;1.80;;;;;;;;;;5097001;28;20268;-59
2023/07/07 04:04:06;;;;;;;4.67;1.93;;;;;;;;;;5078461;28;20024;-58
2023/07/07 04:06:33;;;;;;;4.27;1.50;;;;;;;;;;5092403;28;21174;-59
2023/07/07 04:08:58;;;;;;;5.55;1.83;;;;;;;;;;5086136;28;20824;-59
2023/07/07 04:11:24;;;;;;;4.53;1.80;;;;;;;;;;5086459;28;20026;-58
2023/07/07 04:13:50;;;;;;;4.70;1.58;;;;;;;;;;5090256;28;20258;-60
2023/07/07 04:16:20;;;;;;;4.63;1.92;;;;;;;;;;5084530;28;20013;-59
2023/07/07 04:18:46;;;;;;;5.18;1.88;;;;;;;;;;5090318;28;20019;-60
2023/07/07 04:21:12;;;;;;;4.60;1.60;;;;;;;;;;5083603;28;20034;-59
2023/07/07 04:23:41;;;;;;;5.75;2.03;;;;;;;;;;5096012;28;20183;-59
2023/07/07 04:26:07;;;;;;;5.33;1.80;;;;;;;;;;5089962;28;20359;-59
2023/07/07 04:28:34;;;;;;;4.75;2.00;;;;;;;;;;5088460;28;20031;-59
2023/07/07 04:30:59;;;;;;;5.38;2.13;;;;;;;;;;5094405;28;20045;-58
2023/07/07 04:33:26;;;;;;;4.60;1.50;;;;;;;;;;5081153;28;20023;-60
2023/07/07 04:35:59;;;;;;;5.55;1.80;;;;;;;;;;5080531;28;20304;-60
2023/07/07 04:38:30;;;;;;;5.43;1.75;;;;;;;;;;5079513;28;20696;-59
2023/07/07 04:41:04;;;;;;;5.55;1.77;;;;;;;;;;5090671;28;20842;-59
2023/07/07 04:43:29;;;;;;;5.75;1.70;;;;;;;;;;5077586;28;20027;-59
2023/07/07 04:45:54;;;;;;;5.20;1.70;;;;;;;;;;5090126;28;20435;-59
2023/07/07 04:48:20;;;;;;;5.23;1.60;;;;;;;;;;5082651;27;20269;-58
2023/07/07 04:50:51;;;;;;;5.17;1.70;;;;;;;;;;5079277;28;20277;-59
2023/07/07 04:53:18;;;;;;;5.15;1.70;;;;;;;;;;5089782;28;20308;-59
2023/07/07 04:55:47;;;;;;;4.28;1.50;;;;;;;;;;5085027;28;20019;-60
2023/07/07 04:58:12;;;;;;;5.85;1.67;;;;;;;;;;5093334;28;20095;-59
2023/07/07 05:00:37;;;;;;;4.17;1.73;;;;;;;;;;5085654;28;20016;-60
2023/07/07 05:03:04;;;;;;;4.57;1.77;;;;;;;;;;5083955;28;20309;-60
2023/07/07 05:08:19;;;;;;;5.40;1.67;;;;;;;;;;5076888;28;21894;-59
2023/07/07 05:10:46;;;;;;;5.97;1.80;;;;;;;;;;5088263;28;20048;-59
2023/07/07 05:13:12;;;;;;;4.65;1.60;;;;;;;;;;5078296;28;20679;-59
2023/07/07 05:15:37;;;;;;;6.13;1.90;;;;;;;;;;5090290;28;20024;-59
2023/07/07 05:18:03;;;;;;;5.10;1.70;;;;;;;;;;5084282;28;20686;-59
2023/07/07 05:20:28;;;;;;;4.57;1.73;;;;;;;;;;5081649;28;20024;-59
2023/07/07 05:22:53;;;;;;;4.10;1.70;;;;;;;;;;5084297;28;20020;-60
2023/07/07 05:25:19;;;;;;;5.40;1.50;;;;;;;;;;5081367;28;20122;-59
2023/07/07 05:27:44;;;;;;;7.15;1.83;;;;;;;;;;5089050;28;20132;-59
2023/07/07 05:30:09;;;;;;;6.70;1.53;;;;;;;;;;5087257;28;20102;-60
2023/07/07 05:32:35;;;;;;;5.35;1.80;;;;;;;;;;5090225;28;20326;-59
2023/07/07 05:35:00;;;;;;;6.47;1.90;;;;;;;;;;5086686;28;20035;-59
2023/07/07 05:37:26;;;;;;;5.40;1.65;;;;;;;;;;5085913;28;20062;-59
2023/07/07 05:39:51;;;;;;;5.28;1.75;;;;;;;;;;5079487;28;20040;-59
2023/07/07 05:42:16;;;;;;;6.17;1.70;;;;;;;;;;5083035;28;20049;-59
2023/07/07 05:44:44;;;;;;;4.43;1.77;;;;;;;;;;5088354;28;20359;-59
2023/07/07 05:47:09;;;;;;;4.60;1.58;;;;;;;;;;5079579;28;20270;-60
2023/07/07 05:49:34;;;;;;;4.27;1.43;;;;;;;;;;5081062;28;20020;-60
2023/07/07 05:52:00;;;;;;;5.63;1.53;;;;;;;;;;5080215;28;20266;-60
2023/07/07 05:54:27;;;;;;;5.93;1.58;;;;;;;;;;5083290;28;20034;-59
2023/07/07 05:56:59;;;;;;;5.32;1.77;;;;;;;;;;5079947;28;20034;-60
2023/07/07 05:59:24;;;;;;;5.55;1.80;;;;;;;;;;5090269;28;20020;-60
2023/07/07 06:01:51;;;;;;;5.83;1.97;;;;;;;;;;5077135;28;20894;-58
2023/07/07 06:04:19;;;;;;;6.57;2.05;;;;;;;;;;5091380;28;20962;-59
2023/07/07 06:06:44;;;;;;;4.95;1.80;;;;;;;;;;5085000;28;20482;-59
2023/07/07 06:09:09;;;;;;;5.45;2.00;;;;;;;;;;5076977;28;20031;-59
2023/07/07 06:11:35;;;;;;;6.30;1.80;;;;;;;;;;5084718;28;20020;-59
2023/07/07 06:14:00;;;;;;;3.67;1.67;;;;;;;;;;5084222;28;20686;-59
2023/07/07 06:16:27;;;;;;;6.43;1.70;;;;;;;;;;5090509;28;20128;-59
2023/07/07 06:18:57;;;;;;;4.63;1.63;;;;;;;;;;5083961;28;20274;-59
2023/07/07 06:21:22;;;;;;;4.78;1.70;;;;;;;;;;5082125;28;21084;-60
2023/07/07 06:23:50;;;;;;;5.47;1.87;;;;;;;;;;5074921;28;20126;-59
2023/07/07 06:26:15;;;;;;;6.10;1.85;;;;;;;;;;5087243;28;20272;-59
2023/07/07 06:28:43;;;;;;;6.10;1.80;;;;;;;;;;5080768;28;20985;-60
2023/07/07 06:31:08;;;;;;;4.70;1.73;;;;;;;;;;5083111;28;21118;-60
2023/07/07 06:33:36;;;;;;;5.83;1.60;;;;;;;;;;5086086;28;20134;-59
2023/07/07 06:36:01;;;;;;;5.57;1.80;;;;;;;;;;5081962;28;20386;-59
2023/07/07 06:38:27;;;;;;;4.80;1.50;;;;;;;;;;5082256;28;20119;-59
2023/07/07 06:40:53;;;;;;;6.17;1.90;;;;;;;;;;5080548;28;20035;-60
2023/07/07 06:43:18;;;;;;;5.65;1.83;;;;;;;;;;5088812;28;20254;-59
2023/07/07 06:45:44;;;;;;;5.27;1.53;;;;;;;;;;5082134;28;20563;-58
2023/07/07 06:48:12;;;;;;;4.55;1.70;;;;;;;;;;5089189;28;20279;-60
2023/07/07 06:50:41;;;;;;;5.00;1.80;;;;;;;;;;5074743;28;20110;-60
2023/07/07 06:53:10;;;;;;;4.60;1.50;;;;;;;;;;5081770;28;20024;-58
2023/07/07 06:55:35;;;;;;;5.55;1.70;;;;;;;;;;5079871;28;20412;-59
2023/07/07 06:58:00;;;;;;;5.37;1.70;;;;;;;;;;5084015;28;20028;-60
2023/07/07 07:00:26;;;;;;;4.50;1.60;;;;;;;;;;5077280;28;20290;-60
2023/07/07 07:02:51;;;;;;;4.32;1.33;;;;;;;;;;5083597;28;20024;-59
2023/07/07 07:05:16;;;;;;;5.80;2.00;;;;;;;;;;5079216;28;20020;-59
2023/07/07 07:07:42;;;;;;;8.23;2.10;;;;;;;;;;5084553;28;20814;-59
2023/07/07 07:10:10;;;;;;;6.13;2.25;;;;;;;;;;5087520;28;20031;-60
2023/07/07 07:12:38;;;;;;;6.70;1.98;;;;;;;;;;5095973;28;20064;-60
2023/07/07 07:15:03;;;;;;;4.65;1.80;;;;;;;;;;5088578;28;20672;-59
2023/07/07 07:17:28;;;;;;;6.70;2.40;;;;;;;;;;5086086;28;20047;-60
2023/07/07 07:19:54;;;;;;;5.10;2.30;;;;;;;;;;5072865;28;20023;-60
2023/07/07 07:22:21;;;;;;;4.80;2.20;;;;;;;;;;5070788;28;20723;-61
2023/07/07 07:24:47;;;;;;;5.47;1.95;;;;;;;;;;5060121;28;20024;-60
2023/07/07 07:27:15;;;;;;;7.63;2.42;;;;;;;;;;5075759;28;20024;-60
2023/07/07 07:29:42;;;;;;;7.15;3.20;;;;;;;;;;5087400;28;20035;-60
2023/07/07 07:32:07;;;;;;;5.97;2.67;;;;;;;;;;5097353;28;20042;-59
2023/07/07 07:34:33;;;;;;;6.70;3.13;;;;;;;;;;5095248;28;20474;-59
2023/07/07 07:37:02;;;;;;;8.80;2.60;;;;;;;;;;5095181;28;20032;-59
2023/07/07 07:39:27;;;;;;;6.60;1.83;;;;;;;;;;5094654;28;20042;-59
2023/07/07 07:41:55;;;;;;;6.03;1.60;;;;;;;;;;5099075;28;20722;-59
2023/07/07 07:44:22;;;;;;;5.00;1.90;;;;;;;;;;5099736;28;20031;-59
2023/07/07 07:46:48;;;;;;;5.50;1.90;;;;;;;;;;5098399;28;20028;-60
2023/07/07 07:49:13;;;;;;;5.43;2.00;;;;;;;;;;5090546;28;20020;-60
2023/07/07 07:51:39;;;;;;;5.78;2.20;;;;;;;;;;5093873;28;20027;-59
2023/07/07 07:54:11;;;;;;;5.10;1.75;;;;;;;;;;5093115;28;20020;-59
2023/07/07 07:56:36;;;;;;;5.30;1.98;;;;;;;;;;5093658;28;20038;-59
2023/07/07 07:59:02;;;;;;;5.68;1.85;;;;;;;;;;5093932;28;20028;-60
2023/07/07 08:01:31;;;;;;;6.43;1.80;;;;;;;;;;5098238;28;20036;-59
2023/07/07 08:03:56;;;;;;;4.32;1.73;;;;;;;;;;5096087;28;20509;-59
2023/07/07 08:06:21;;;;;;;5.00;1.73;;;;;;;;;;5096618;28;20043;-59
2023/07/07 08:08:46;;;;;;;5.30;1.77;;;;;;;;;;5092069;28;20273;-59
2023/07/07 08:11:17;;;;;;;4.45;1.55;;;;;;;;;;5092898;28;20016;-60
2023/07/07 08:13:42;;;;;;;5.10;1.60;;;;;;;;;;5094565;28;20012;-59
2023/07/07 08:16:11;;;;;;;7.43;1.63;;;;;;;;;;5089569;28;20054;-59
2023/07/07 08:18:37;;;;;;;4.63;1.65;;;;;;;;;;5095382;28;20011;-59
2023/07/07 08:21:02;;;;;;;7.22;1.70;;;;;;;;;;5094447;28;20406;-59
2023/07/07 08:23:27;;;;;;;4.80;1.83;;;;;;;;;;5098584;28;20027;-60
2023/07/07 08:25:55;;;;;;;5.27;1.80;;;;;;;;;;5094533;28;20381;-59
2023/07/07 08:28:20;;;;;;;4.60;1.65;;;;;;;;;;5093624;28;20273;-60
2023/07/07 08:30:48;;;;;;;6.35;1.70;;;;;;;;;;5097111;28;20070;-59
2023/07/07 08:33:15;;;;;;;5.78;1.90;;;;;;;;;;5096594;28;20023;-59
2023/07/07 08:35:43;;;;;;;6.78;1.73;;;;;;;;;;5092115;28;20027;-59
2023/07/07 08:38:11;;;;;;;5.20;1.70;;;;;;;;;;5099360;28;20070;-60
2023/07/07 08:40:43;;;;;;;5.00;1.65;;;;;;;;;;5093083;28;20027;-60
2023/07/07 08:43:09;;;;;;;4.32;1.60;;;;;;;;;;5098892;28;20053;-60
2023/07/07 08:45:35;;;;;;;5.68;1.50;;;;;;;;;;5095609;28;20073;-59
2023/07/07 08:48:25;;;;;;;4.07;1.50;;;;;;;;;;5099308;28;20519;-59
2023/07/07 08:50:55;;;;;;;5.63;1.83;;;;;;;;;;5097523;28;20024;-60
2023/07/07 08:53:27;;;;;;;5.55;1.70;;;;;;;;;;5095002;28;20023;-59
2023/07/07 08:55:54;;;;;;;5.35;1.65;;;;;;;;;;5091598;28;20029;-59
2023/07/07 08:58:22;;;;;;;4.95;1.73;;;;;;;;;;5095258;28;20058;-60
2023/07/07 09:00:47;;;;;;;4.45;1.70;;;;;;;;;;5091111;28;20019;-60
2023/07/07 09:03:19;;;;;;;4.07;1.60;;;;;;;;;;5089704;28;20675;-60
2023/07/07 09:05:44;;;;;;;4.35;1.58;;;;;;;;;;5092851;28;21586;-59
2023/07/07 09:08:38;;;;;;;4.70;1.77;;;;;;;;;;5085789;28;20023;-59
2023/07/07 09:11:23;;;;;;;5.15;1.90;;;;;;;;;;5067153;28;20060;-59
2023/07/07 09:13:49;;;;;;;3.97;1.42;;;;;;;;;;5094995;28;20032;-60
2023/07/07 09:16:14;;;;;;;4.65;1.70;;;;;;;;;;5095864;28;20023;-60
2023/07/07 09:19:00;;;;;;;5.80;1.80;;;;;;;;;;5095132;28;20020;-60
2023/07/07 09:21:28;;;;;;;4.30;1.70;;;;;;;;;;5098139;28;20161;-59
2023/07/07 09:23:55;;;;;;;4.25;1.45;;;;;;;;;;5100380;28;20031;-59
2023/07/07 09:26:32;;;;;;;4.25;1.73;;;;;;;;;;5097166;28;20030;-59
2023/07/07 09:28:58;;;;;;;4.28;1.67;;;;;;;;;;5092988;28;20054;-59
2023/07/07 09:31:34;;;;;;;4.90;1.70;;;;;;;;;;5093800;28;20571;-60
2023/07/07 09:34:02;;;;;;;5.05;1.67;;;;;;;;;;5093550;28;20035;-60
2023/07/07 09:36:31;;;;;;;4.72;1.50;;;;;;;;;;5093864;28;20016;-60
2023/07/07 09:39:03;;;;;;;4.32;1.70;;;;;;;;;;5093473;28;20028;-61
2023/07/07 09:41:44;;;;;;;4.50;2.00;;;;;;;;;;5096074;28;20034;-60
2023/07/07 09:44:27;;;;;;;4.97;1.80;;;;;;;;;;5091391;28;20122;-60
2023/07/07 09:46:56;;;;;;;4.50;1.52;;;;;;;;;;5090789;28;20027;-60
2023/07/07 09:49:24;;;;;;;5.32;1.95;;;;;;;;;;5092619;28;20043;-60
2023/07/07 09:51:51;;;;;;;6.03;1.67;;;;;;;;;;5093818;28;20098;-60
2023/07/07 09:54:17;;;;;;;4.47;1.60;;;;;;;;;;5090562;28;20721;-60
2023/07/07 09:57:00;;;;;;;6.10;1.77;;;;;;;;;;5086877;28;20020;-60
2023/07/07 09:59:28;;;;;;;5.20;1.80;;;;;;;;;;5091787;28;20356;-61
2023/07/07 10:01:55;;;;;;;9.82;2.45;;;;;;;;;;5092785;28;20058;-59
2023/07/07 10:04:21;;;;;;;6.88;2.20;;;;;;;;;;5090749;28;20016;-59
2023/07/07 10:06:59;;;;;;;5.13;1.77;;;;;;;;;;5094467;28;20016;-59
2023/07/07 10:09:26;;;;;;;4.72;1.95;;;;;;;;;;5085283;28;20024;-59
2023/07/07 10:11:55;;;;;;;7.35;1.92;;;;;;;;;;5090275;28;20051;-58
2023/07/07 10:14:22;;;;;;;;;;;;;;;;;;5093228;28;20027;-59
2023/07/07 10:16:55;;;;;;;5.45;1.80;;;;;;;;;;5097036;28;19927;-59
2023/07/07 10:19:25;;;;;;;4.95;1.95;;;;;;;;;;5088454;28;20035;-59
2023/07/07 10:21:54;;;;;;;6.05;1.80;;;;;;;;;;5092854;28;20062;-59
2023/07/07 10:24:20;;;;;;;5.27;2.00;;;;;;;;;;5094550;28;20019;-59
2023/07/07 10:26:48;;;;;;;7.18;1.65;;;;;;;;;;5090749;28;20867;-59
2023/07/07 10:29:21;;;;;;;6.28;2.10;;;;;;;;;;5088978;28;20107;-60
2023/07/07 10:31:48;;;;;;;5.72;2.05;;;;;;;;;;5089724;28;20063;-59
2023/07/07 10:34:33;;;;;;;4.70;1.90;;;;;;;;;;5087096;28;20055;-59
2023/07/07 10:36:58;;;;;;;6.20;1.95;;;;;;;;;;5081129;28;20428;-60
2023/07/07 10:39:25;;;;;;;5.07;2.00;;;;;;;;;;5088360;28;20020;-60
2023/07/07 10:41:50;;;;;;;7.53;2.10;;;;;;;;;;5093326;28;20065;-59
2023/07/07 10:44:15;;;;;;;4.30;1.77;;;;;;;;;;5092284;28;20008;-60
2023/07/07 10:46:43;;;;;;;7.60;2.00;;;;;;;;;;5091373;28;20024;-61
2023/07/07 10:49:13;;;;;;;5.03;2.15;;;;;;;;;;5078544;28;20525;-58
2023/07/07 10:51:44;;;;;;;5.53;2.13;;;;;;;;;;5092476;28;20493;-59
2023/07/07 10:54:48;;;;;;;4.90;1.95;;;;;;;;;;5097773;28;20020;-59
2023/07/07 10:57:13;;;;;;;4.63;2.00;;;;;;;;;;5018269;28;20127;-59
2023/07/07 10:59:44;;;;;;;5.47;1.93;;;;;;;;;;5032014;28;20671;-60
2023/07/07 11:02:28;;;;;;;4.80;1.88;;;;;;;;;;5018883;28;20040;-60
2023/07/07 11:04:56;;;;;;;4.22;1.80;;;;;;;;;;5037326;28;20028;-60
2023/07/07 11:07:32;;;;;;;5.18;2.08;;;;;;;;;;5035681;28;20080;-60
2023/07/07 11:09:58;;;;;;;5.68;1.90;;;;;;;;;;5032816;28;20075;-59
2023/07/07 11:12:41;;;;;;;4.77;1.87;;;;;;;;;;5039718;28;20017;-59
2023/07/07 11:15:16;;;;;;;4.95;1.80;;;;;;;;;;5020186;28;20208;-59
2023/07/07 11:18:00;;;;;;;5.47;1.98;;;;;;;;;;5036252;28;20049;-59
2023/07/07 11:20:40;;;;;;;5.28;1.65;;;;;;;;;;5038184;28;20037;-59
2023/07/07 11:23:11;;;;;;;5.68;1.98;;;;;;;;;;5039052;28;20082;-60
2023/07/07 11:25:36;;;;;;;6.00;1.73;;;;;;;;;;5021254;28;20128;-60
2023/07/07 11:28:01;;;;;;;6.43;1.90;;;;;;;;;;5056128;28;20243;-60
2023/07/07 11:30:27;;;;;;;6.37;2.30;;;;;;;;;;5089939;28;20102;-59
2023/07/07 11:33:03;;;;;;;6.00;2.17;;;;;;;;;;5097213;28;20022;-59
2023/07/07 11:35:38;;;;;;;4.97;1.80;;;;;;;;;;5086426;28;20301;-60
2023/07/07 11:38:20;;;;;;;6.35;2.10;;;;;;;;;;5097188;28;20410;-59
2023/07/07 11:40:48;;;;;;;5.55;2.05;;;;;;;;;;5092697;28;20023;-59
2023/07/07 11:43:22;;;;;;;5.05;2.10;;;;;;;;;;5089986;28;20019;-59
2023/07/07 11:45:52;;;;;;;7.13;2.20;;;;;;;;;;5094461;28;20051;-57
2023/07/07 11:48:18;;;;;;;6.30;2.33;;;;;;;;;;5090629;28;20039;-60
2023/07/07 11:50:53;;;;;;;6.18;2.00;;;;;;;;;;5087662;28;20067;-62
2023/07/07 11:53:28;;;;;;;7.30;2.50;;;;;;;;;;5092828;28;20019;-59
2023/07/07 11:56:04;;;;;;;6.57;2.25;;;;;;;;;;5107000;27;20077;-61
2023/07/07 11:58:29;;;;;;;4.95;2.20;;;;;;;;;;5082068;28;20043;-60
2023/07/07 12:01:13;;;;;;;7.10;2.40;;;;;;;;;;5087345;28;20169;-59
2023/07/07 12:03:44;;;;;;;5.90;2.30;;;;;;;;;;5087305;28;20062;-59
2023/07/07 12:06:25;;;;;;;6.32;2.30;;;;;;;;;;5096409;28;20027;-58
2023/07/07 12:08:59;;;;;;;6.97;2.38;;;;;;;;;;5091112;28;20083;-60
2023/07/07 12:11:26;;;;;;;6.47;2.53;;;;;;;;;;5097925;28;20031;-59
2023/07/07 12:14:14;;;;;;;7.20;2.40;;;;;;;;;;5092910;28;20061;-59
2023/07/07 12:16:42;;;;;;;8.17;2.40;;;;;;;;;;5078438;28;20561;-59
2023/07/07 12:19:20;;;;;;;5.95;2.40;;;;;;;;;;5089190;27;20050;-59
2023/07/07 12:21:48;;;;;;;7.82;2.20;;;;;;;;;;5086985;28;20380;-59
2023/07/07 12:24:26;;;;;;;6.38;2.10;;;;;;;;;;5095246;28;20022;-59
2023/07/07 12:27:00;;;;;;;6.20;2.47;;;;;;;;;;5096656;28;20008;-59
2023/07/07 12:29:26;;;;;;;8.65;2.40;;;;;;;;;;5093389;28;20019;-60
2023/07/07 12:31:51;;;;;;;6.10;2.40;;;;;;;;;;5091970;28;20073;-60
2023/07/07 12:34:40;;;;;;;6.80;2.50;;;;;;;;;;5095095;28;20043;-60
2023/07/07 12:37:14;;;;;;;5.68;2.25;;;;;;;;;;5096973;28;20334;-59
2023/07/07 12:39:50;;;;;;;6.78;2.25;;;;;;;;;;5094815;28;20461;-59
2023/07/07 12:42:15;;;;;;;5.57;2.40;;;;;;;;;;5095170;28;20100;-60
2023/07/07 12:44:41;;;;;;;5.68;2.25;;;;;;;;;;5094152;27;21295;-61
2023/07/07 12:47:40;;;;;;;6.15;2.60;;;;;;;;;;5094363;28;20012;-59
2023/07/07 12:50:18;;;;;;;9.25;2.50;;;;;;;;;;5069599;28;20032;-61
2023/07/07 12:52:47;;;;;;;5.82;2.45;;;;;;;;;;5091337;28;20027;-60
2023/07/07 12:55:22;;;;;;;7.07;2.13;;;;;;;;;;5092022;28;20027;-60
2023/07/07 12:58:22;;;;;;;5.97;2.58;;;;;;;;;;5086891;28;20149;-59
2023/07/07 13:00:50;;;;;;;6.05;2.67;;;;;;;;;;5095231;28;20031;-59
2023/07/07 13:03:19;;;;;;;7.88;2.20;;;;;;;;;;5092906;28;20111;-61
2023/07/07 13:05:45;;;;;;;7.20;2.40;;;;;;;;;;5092897;28;20122;-60
2023/07/07 13:08:10;;;;;;;6.05;2.47;;;;;;;;;;5096847;28;20871;-60
2023/07/07 13:10:42;;;;;;;7.00;2.60;;;;;;;;;;5091516;28;20020;-59
2023/07/07 13:13:18;;;;;;;6.90;2.40;;;;;;;;;;5092028;28;20281;-59
2023/07/07 13:15:43;;;;;;;8.23;2.60;;;;;;;;;;5091563;28;20584;-58
2023/07/07 13:18:08;;;;;;;7.07;3.27;;;;;;;;;;5092973;28;20055;-59
2023/07/07 13:20:35;;;;;;;6.30;2.80;;;;;;;;;;5091653;28;20364;-60
2023/07/07 13:23:24;;;;;;;5.40;2.20;;;;;;;;;;5093819;28;20384;-58
2023/07/07 13:25:49;;;;;;;5.93;2.28;;;;;;;;;;5085518;28;20028;-59
2023/07/07 13:28:21;;;;;;;5.97;2.40;;;;;;;;;;5097025;28;20568;-59
2023/07/07 13:30:51;;;;;;;5.78;2.40;;;;;;;;;;5092138;28;20316;-59
2023/07/07 13:33:16;;;;;;;;;;;;;;;;;;5090596;28;20036;-58
2023/07/07 13:35:43;;;;;;;5.93;2.38;;;;;;;;;;5096341;28;19919;-60
2023/07/07 13:38:11;;;;;;;6.47;2.58;;;;;;;;;;5099090;28;20016;-60
2023/07/07 13:40:37;;;;;;;6.97;2.65;;;;;;;;;;5092256;28;20045;-58
2023/07/07 13:43:03;;;;;;;6.07;2.50;;;;;;;;;;5092546;28;20643;-58
2023/07/07 13:45:32;;;;;;;6.65;2.40;;;;;;;;;;5100919;28;20516;-59
2023/07/07 13:47:58;;;;;;;8.77;2.92;;;;;;;;;;5098378;28;20055;-59
2023/07/07 13:50:28;;;;;;;7.10;2.70;;;;;;;;;;5092785;28;20123;-59
2023/07/07 13:52:57;;;;;;;5.85;2.72;;;;;;;;;;5090481;27;20039;-61
2023/07/07 13:55:26;;;;;;;5.55;2.55;;;;;;;;;;5091042;28;20034;-60
2023/07/07 13:57:51;;;;;;;6.47;2.65;;;;;;;;;;5091459;28;20035;-61
2023/07/07 14:00:18;;;;;;;6.65;2.72;;;;;;;;;;5094277;28;20410;-61
2023/07/07 14:02:43;;;;;;;5.57;2.58;;;;;;;;;;5088171;28;20072;-61
2023/07/07 14:05:13;;;;;;;5.75;2.50;;;;;;;;;;5093959;28;20019;-62
2023/07/07 14:07:40;;;;;;;8.50;2.80;;;;;;;;;;5091279;28;20015;-61
2023/07/07 14:10:34;;;;;;;6.82;3.03;;;;;;;;;;5093169;28;20019;-61
2023/07/07 14:13:03;;;;;;;10.10;2.78;;;;;;;;;;5079205;28;20040;-61
2023/07/07 14:15:35;;;;;;;7.03;2.65;;;;;;;;;;5095543;28;20011;-61
2023/07/07 14:18:02;;;;;;;6.05;2.42;;;;;;;;;;5089740;28;20043;-61
2023/07/07 14:20:33;;;;;;;6.82;2.65;;;;;;;;;;5095011;28;20119;-61
2023/07/07 14:22:59;;;;;;;5.97;2.85;;;;;;;;;;5090370;28;20086;-61
2023/07/07 14:25:27;;;;;;;7.10;3.07;;;;;;;;;;5094405;28;20481;-62
2023/07/07 14:27:54;;;;;;;8.52;3.03;;;;;;;;;;5093126;28;20366;-61
2023/07/07 14:30:22;;;;;;;6.70;3.00;;;;;;;;;;5085462;28;20110;-61
2023/07/07 14:32:52;;;;;;;8.40;3.35;;;;;;;;;;5093561;28;20023;-62
2023/07/07 14:35:25;;;;;;;10.27;3.17;;;;;;;;;;5090280;28;20031;-61
2023/07/07 14:37:53;;;;;;;8.77;3.30;;;;;;;;;;5085361;28;20023;-62
2023/07/07 14:40:27;;;;;;;7.53;2.75;;;;;;;;;;5091817;28;20020;-61
2023/07/07 14:42:53;;;;;;;7.75;3.08;;;;;;;;;;5090631;28;20650;-61
2023/07/07 14:45:22;;;;;;;6.65;2.80;;;;;;;;;;5092602;28;20056;-60
2023/07/07 14:47:48;;;;;;;7.07;2.85;;;;;;;;;;5086973;28;20035;-61
2023/07/07 14:50:13;;;;;;;9.63;3.20;;;;;;;;;;5093257;28;20032;-61
2023/07/07 14:52:40;;;;;;;8.45;3.28;;;;;;;;;;5092522;28;20020;-61
2023/07/07 14:55:13;;;;;;;6.93;2.92;;;;;;;;;;5093958;28;20048;-61
2023/07/07 14:57:39;;;;;;;7.80;3.22;;;;;;;;;;5089874;28;20107;-62